Time;durP1;ratioP1;P1;durP2;ratioP2;P2;SDS_P1;SDS_P2;PMS_P1;PMS_P2;Temp;Humidity;BMP_temperature;BMP_pressure;BME280_temperature;BME280_humidity;BME280_pressure;Samples;Min_cycle;Max_cycle;Signal;HPM_P1;HPM_P2
2021/03/28 00:00:44;;;;;;;;;;;5.70;99.90;;;;;;13152282;22;20414;-88
2021/03/28 00:05:46;;;;;;;;;;;5.80;99.90;;;;;;13155407;22;19945;-88
2021/03/28 00:10:52;;;;;;;;;;;5.60;99.90;;;;;;13156209;22;19930;-88
2021/03/28 00:15:56;;;;;;;;;;;5.60;99.90;;;;;;13156111;22;19922;-88
2021/03/28 00:21:19;;;;;;;;;;;5.60;99.90;;;;;;13159948;22;19934;-88
2021/03/28 00:26:23;;;;;;;;;;;5.70;99.90;;;;;;13156165;22;19985;-88
2021/03/28 00:31:24;;;;;;;;;;;5.90;99.90;;;;;;13155897;22;19959;-88
2021/03/28 00:36:33;;;;;;;;;;;7.90;99.90;;;;;;13154817;22;20001;-88
2021/03/28 00:42:07;;;;;;;;;;;6.00;99.90;;;;;;13155362;22;19918;-88
2021/03/28 00:47:11;;;;;;;;;;;5.90;99.90;;;;;;13062317;22;19945;-88
2021/03/28 00:52:15;;;;;;;;;;;6.00;99.90;;;;;;13183452;22;19985;-88
2021/03/28 00:57:21;;;;;;;;;;;6.00;99.90;;;;;;13155322;22;19953;-88
2021/03/28 01:02:28;;;;;;;;;;;5.90;99.90;;;;;;13155701;22;19925;-88
2021/03/28 01:07:32;;;;;;;;;;;6.00;99.90;;;;;;13181858;22;20277;-88
2021/03/28 01:12:56;;;;;;;;;;;6.10;99.90;;;;;;13153933;22;19918;-88
2021/03/28 01:18:05;;;;;;;;;;;5.90;99.90;;;;;;13154709;22;20004;-88
2021/03/28 01:23:06;;;;;;;;;;;5.90;99.90;;;;;;13154024;22;19918;-88
2021/03/28 01:28:19;;;;;;;;;;;6.80;99.90;;;;;;13153953;22;20317;-88
2021/03/28 01:33:25;;;;;;;;;;;5.50;99.90;;;;;;13154751;22;19946;-88
2021/03/28 01:38:31;;;;;;;;;;;5.60;99.90;;;;;;13154572;22;19965;-88
2021/03/28 01:43:36;;;;;;;;;;;5.60;99.90;;;;;;13181397;22;20407;-88
2021/03/28 01:48:41;;;;;;;;;;;5.50;99.90;;;;;;13182134;22;19932;-88
2021/03/28 01:54:17;;;;;;;;;;;5.50;99.90;;;;;;13153299;22;19974;-87
2021/03/28 01:59:36;;;;;;;;;;;5.60;99.90;;;;;;12953344;22;19928;-87
2021/03/28 02:04:45;;;;;;;;;;;5.50;99.90;;;;;;13153765;22;19997;-87
2021/03/28 02:10:05;;;;;;;;;;;5.60;99.90;;;;;;13154190;22;19993;-88
2021/03/28 02:15:15;;;;;;;;;;;5.60;99.90;;;;;;13153891;22;19953;-87
2021/03/28 02:20:17;;;;;;;;;;;5.90;99.90;;;;;;13153850;22;19922;-88
2021/03/28 02:25:30;;;;;;;;;;;5.60;99.90;;;;;;13153419;22;19937;-87
2021/03/28 02:30:35;;;;;;;;;;;5.60;99.90;;;;;;13152687;22;19991;-87
2021/03/28 02:35:52;;;;;;;;;;;7.70;99.90;;;;;;13153297;22;19922;-87
2021/03/28 02:40:59;;;;;;;;;;;5.80;99.90;;;;;;13152584;22;19924;-87
2021/03/28 02:46:15;;;;;;;;;;;6.00;99.90;;;;;;13181075;22;19987;-88
2021/03/28 02:51:26;;;;;;;;;;;6.70;99.90;;;;;;13152292;22;20335;-87
2021/03/28 02:56:27;;;;;;;;;;;5.80;99.90;;;;;;13152410;22;19996;-87
2021/03/28 03:01:47;;;;;;;;;;;5.80;99.90;;;;;;13153210;22;19944;-87
2021/03/28 03:07:06;;;;;;;;;;;5.80;99.90;;;;;;13179575;22;19989;-88
2021/03/28 03:12:14;;;;;;;;;;;5.90;99.90;;;;;;13152115;22;19926;-88
2021/03/28 03:17:27;;;;;;;;;;;5.80;99.90;;;;;;13151997;22;19993;-88
2021/03/28 03:22:41;;;;;;;;;;;5.70;99.90;;;;;;13153073;22;19918;-88
2021/03/28 03:27:55;;;;;;;;;;;5.70;99.90;;;;;;13180143;22;20316;-88
2021/03/28 03:33:02;;;;;;;;;;;5.70;99.90;;;;;;13151752;22;19989;-88
2021/03/28 03:38:12;;;;;;;;;;;5.70;99.90;;;;;;13182826;22;19918;-88
2021/03/28 03:43:29;;;;;;;;;;;5.60;99.90;;;;;;13183829;22;19922;-88
2021/03/28 03:48:35;;;;;;;;;;;5.70;99.90;;;;;;13156726;22;19985;-87
2021/03/28 03:54:00;;;;;;;;;;;5.60;99.90;;;;;;13160319;22;19922;-88
2021/03/28 03:59:19;;;;;;;;;;;5.60;99.90;;;;;;13155652;22;19922;-88
2021/03/28 04:04:47;;;;;;;;;;;5.70;99.90;;;;;;13154663;22;19918;-88
2021/03/28 04:09:55;;;;;;;;;;;5.70;99.90;;;;;;13087478;22;20370;-88
2021/03/28 04:15:06;;;;;;;;;;;5.70;99.90;;;;;;13155530;22;19922;-87
2021/03/28 04:20:07;;;;;;;;;;;5.80;99.90;;;;;;13183641;22;19997;-88
2021/03/28 04:25:16;;;;;;;;;;;6.80;99.90;;;;;;13155351;22;20319;-88
2021/03/28 04:30:27;;;;;;;;;;;5.90;99.90;;;;;;13155153;22;19922;-88
2021/03/28 04:35:37;;;;;;;;;;;5.90;99.90;;;;;;13155684;22;19989;-88
2021/03/28 04:40:45;;;;;;;;;;;5.80;99.90;;;;;;13154534;22;20402;-88
2021/03/28 04:45:56;;;;;;;;;;;5.90;99.90;;;;;;13182559;22;19989;-88
2021/03/28 04:51:22;;;;;;;;;;;6.20;99.90;;;;;;13181954;22;20391;-88
2021/03/28 04:56:34;;;;;;;;;;;6.00;99.90;;;;;;13154384;22;20315;-87
2021/03/28 05:01:39;;;;;;;;;;;6.10;99.90;;;;;;13183049;22;19934;-88
2021/03/28 05:06:58;;;;;;;;;;;6.00;99.90;;;;;;13153716;22;20332;-88
2021/03/28 05:12:03;;;;;;;;;;;6.00;99.90;;;;;;13154262;22;19929;-88
2021/03/28 05:17:04;;;;;;;;;;;6.10;99.90;;;;;;13153912;22;19925;-88
2021/03/28 05:22:27;;;;;;;;;;;6.20;99.90;;;;;;13182491;22;19942;-87
2021/03/28 05:27:47;;;;;;;;;;;6.20;99.90;;;;;;13153982;22;19924;-88
2021/03/28 05:33:01;;;;;;;;;;;6.40;99.90;;;;;;13153822;22;20306;-88
2021/03/28 05:38:20;;;;;;;;;;;6.40;99.90;;;;;;13182187;22;19996;-88
2021/03/28 05:43:29;;;;;;;;;;;6.60;99.90;;;;;;13153789;22;19925;-88
2021/03/28 05:48:49;;;;;;;;;;;6.70;99.90;;;;;;13181331;22;19922;-88
2021/03/28 05:54:09;;;;;;;;;;;6.70;99.90;;;;;;13153344;22;19944;-88
2021/03/28 05:59:16;;;;;;;;;;;6.90;99.90;;;;;;13180977;22;20285;-88
2021/03/28 06:04:26;;;;;;;;;;;6.80;99.90;;;;;;13151163;22;19940;-85
2021/03/28 06:09:58;;;;;;;;;;;6.90;99.90;;;;;;13154292;22;19918;-85
2021/03/28 06:15:08;;;;;;;;;;;6.90;99.90;;;;;;13154086;22;19928;-86
2021/03/28 06:20:42;;;;;;;;;;;7.10;99.90;;;;;;13181384;22;19918;-86
2021/03/28 06:26:04;;;;;;;;;;;7.10;99.90;;;;;;13070420;22;19922;-88
2021/03/28 06:31:24;;;;;;;;;;;7.60;99.90;;;;;;13153893;22;19942;-89
2021/03/28 06:36:44;;;;;;;;;;;7.30;99.90;;;;;;13178758;22;19997;-87
2021/03/28 06:41:58;;;;;;;;;;;7.40;99.90;;;;;;13151688;22;19918;-88
2021/03/28 06:47:05;;;;;;;;;;;7.40;99.90;;;;;;13153236;22;19918;-88
2021/03/28 06:52:13;;;;;;;;;;;7.70;99.90;;;;;;13153116;22;19944;-89
2021/03/28 06:57:49;;;;;;;;;;;7.70;99.90;;;;;;13153384;22;19924;-89
2021/03/28 07:03:08;;;;;;;;;;;7.60;99.90;;;;;;13095436;22;19992;-88
2021/03/28 07:08:09;;;;;;;;;;;7.70;99.90;;;;;;13178440;22;20399;-88
2021/03/28 07:13:32;;;;;;;;;;;8.10;99.90;;;;;;13183882;22;20326;-89
2021/03/28 07:18:33;;;;;;;;;;;8.20;99.90;;;;;;13159439;22;20001;-89
2021/03/28 07:23:49;;;;;;;;;;;8.70;99.90;;;;;;13159377;22;19918;-88
2021/03/28 07:29:09;;;;;;;;;;;9.00;99.90;;;;;;13186974;22;20368;-89
2021/03/28 07:34:40;;;;;;;;;;;9.00;99.90;;;;;;13159626;22;20018;-88
2021/03/28 07:39:59;;;;;;;;;;;9.00;99.90;;;;;;13187806;22;20004;-88
2021/03/28 07:45:10;;;;;;;;;;;9.30;99.90;;;;;;13160594;22;19946;-88
2021/03/28 07:50:20;;;;;;;;;;;9.60;99.90;;;;;;13186512;22;20302;-89
2021/03/28 07:55:21;;;;;;;;;;;10.00;99.90;;;;;;13158885;22;19918;-88
2021/03/28 08:00:35;;;;;;;;;;;10.10;99.90;;;;;;13186479;22;19997;-89
2021/03/28 08:05:51;;;;;;;;;;;10.70;99.90;;;;;;13159076;22;19941;-90
2021/03/28 08:11:10;;;;;;;;;;;10.90;99.90;;;;;;13187845;22;19922;-89
2021/03/28 08:16:30;;;;;;;;;;;11.10;99.90;;;;;;13187064;22;19922;-89
2021/03/28 08:21:54;;;;;;;;;;;12.70;99.90;;;;;;13187185;22;19918;-89
2021/03/28 08:27:32;;;;;;;;;;;12.60;99.90;;;;;;13132012;22;19918;-89
2021/03/28 08:32:54;;;;;;;;;;;12.50;99.90;;;;;;13185390;22;20398;-89
2021/03/28 08:38:12;;;;;;;;;;;13.40;99.70;;;;;;13155919;22;19950;-89
2021/03/28 08:43:31;;;;;;;;;;;13.90;99.90;;;;;;13183345;22;19989;-89
2021/03/28 08:48:33;;;;;;;;;;;14.80;98.60;;;;;;13155600;22;19989;-89
2021/03/28 08:53:53;;;;;;;;;;;14.40;96.60;;;;;;13154564;22;20327;-87
2021/03/28 08:59:14;;;;;;;;;;;14.70;95.60;;;;;;13182306;22;19958;-86
2021/03/28 09:04:31;;;;;;;;;;;14.30;96.30;;;;;;13181515;22;20289;-86
2021/03/28 09:09:35;;;;;;;;;;;13.50;97.90;;;;;;13154449;22;20001;-87
2021/03/28 09:14:55;;;;;;;;;;;14.10;98.10;;;;;;13182182;22;20247;-87
2021/03/28 09:20:09;;;;;;;;;;;14.50;94.60;;;;;;13154246;22;20373;-86
2021/03/28 09:25:22;;;;;;;;;;;14.40;94.50;;;;;;13153993;22;20347;-87
2021/03/28 09:30:27;;;;;;;;;;;14.30;94.00;;;;;;13182654;22;19985;-87
2021/03/28 09:35:43;;;;;;;;;;;14.30;93.90;;;;;;13154811;22;20005;-87
2021/03/28 09:40:57;;;;;;;;;;;14.70;93.80;;;;;;13154614;22;19993;-86
2021/03/28 09:46:04;;;;;;;;;;;15.10;92.80;;;;;;13182468;22;19918;-87
2021/03/28 09:51:08;;;;;;;;;;;14.30;95.20;;;;;;13181553;22;20246;-87
2021/03/28 09:56:28;;;;;;;;;;;15.30;92.60;;;;;;13154283;22;19989;-87
2021/03/28 10:01:45;;;;;;;;;;;14.40;93.90;;;;;;13153624;22;20254;-86
2021/03/28 10:06:54;;;;;;;;;;;14.60;91.10;;;;;;13177270;22;19949;-87
2021/03/28 10:12:09;;;;;;;;;;;14.80;83.80;;;;;;13183006;22;19918;-86
2021/03/28 10:17:19;;;;;;;;;;;15.00;78.30;;;;;;13154111;22;20001;-87
2021/03/28 10:22:31;;;;;;;;;;;14.70;76.20;;;;;;13154217;22;19989;-87
2021/03/28 10:27:51;;;;;;;;;;;14.90;74.90;;;;;;13153111;22;19922;-87
2021/03/28 10:32:59;;;;;;;;;;;14.80;71.30;;;;;;13181202;22;19922;-87
2021/03/28 10:38:03;;;;;;;;;;;14.80;71.10;;;;;;13181256;22;19922;-87
2021/03/28 10:43:24;;;;;;;;;;;14.70;72.30;;;;;;13181257;22;19918;-87
2021/03/28 10:48:34;;;;;;;;;;;14.20;70.90;;;;;;13152550;22;19922;-87
2021/03/28 10:53:39;;;;;;;;;;;14.30;70.90;;;;;;13152596;22;20331;-87
2021/03/28 10:58:53;;;;;;;;;;;15.10;72.20;;;;;;13180333;22;20009;-87
2021/03/28 11:03:57;;;;;;;;;;;15.00;73.70;;;;;;13180622;22;20020;-87
2021/03/28 11:09:30;;;;;;;;;;;14.30;69.40;;;;;;13180126;22;20240;-87
2021/03/28 11:14:34;;;;;;;;;;;14.20;73.80;;;;;;13153107;22;19929;-87
2021/03/28 11:19:52;;;;;;;;;;;13.90;71.30;;;;;;13180770;22;19925;-87
2021/03/28 11:25:12;;;;;;;;;;;13.90;74.80;;;;;;13153279;22;19964;-87
2021/03/28 11:30:32;;;;;;;;;;;13.60;80.60;;;;;;13180606;22;19925;-87
2021/03/28 11:35:37;;;;;;;;;;;13.60;80.80;;;;;;13151956;22;19924;-87
2021/03/28 11:40:40;;;;;;;;;;;13.20;83.70;;;;;;13179777;22;19918;-87
2021/03/28 11:46:07;;;;;;;;;;;13.40;85.70;;;;;;13180696;22;20398;-88
2021/03/28 11:51:26;;;;;;;;;;;13.40;85.30;;;;;;13139199;22;19919;-88
2021/03/28 11:56:46;;;;;;;;;;;13.10;85.80;;;;;;13179871;22;20353;-88
2021/03/28 12:02:01;;;;;;;;;;;13.00;86.60;;;;;;13156825;22;19922;-88
2021/03/28 12:07:20;;;;;;;;;;;12.90;88.90;;;;;;13155702;22;19926;-87
2021/03/28 12:12:51;;;;;;;;;;;9.80;89.60;;;;;;13183605;22;20321;-88
2021/03/28 12:18:11;;;;;;;;;;;12.80;91.00;;;;;;13018758;22;20004;-87
2021/03/28 12:23:27;;;;;;;;;;;12.90;91.50;;;;;;13155503;22;20419;-87
2021/03/28 12:28:30;;;;;;;;;;;13.00;92.30;;;;;;13155883;22;20328;-88
2021/03/28 12:33:55;;;;;;;;;;;13.10;91.50;;;;;;13183629;22;19922;-88
2021/03/28 12:39:08;;;;;;;;;;;13.10;91.80;;;;;;13155805;22;19953;-87
2021/03/28 12:44:09;;;;;;;;;;;13.20;91.50;;;;;;13155086;22;19924;-88
2021/03/28 12:49:10;;;;;;;;;;;12.80;91.60;;;;;;13155535;22;19928;-87
2021/03/28 12:54:26;;;;;;;;;;;12.70;93.60;;;;;;13155699;22;20140;-88
2021/03/28 12:59:34;;;;;;;;;;;12.80;93.20;;;;;;13154677;22;20246;-88
2021/03/28 13:04:36;;;;;;;;;;;12.90;93.30;;;;;;13182652;22;19918;-88
2021/03/28 13:09:38;;;;;;;;;;;13.00;93.10;;;;;;13155020;22;19929;-87
2021/03/28 13:14:41;;;;;;;;;;;13.00;94.00;;;;;;13181507;22;19993;-88
2021/03/28 13:19:47;;;;;;;;;;;13.00;92.20;;;;;;13180975;22;20005;-88
2021/03/28 13:24:49;;;;;;;;;;;13.00;92.60;;;;;;13154759;22;19926;-87
2021/03/28 13:29:54;;;;;;;;;;;12.80;92.80;;;;;;13181674;22;20350;-88
2021/03/28 13:34:57;;;;;;;;;;;12.60;92.70;;;;;;13154430;22;19941;-88
2021/03/28 13:40:03;;;;;;;;;;;12.50;93.70;;;;;;13154418;22;20013;-88
2021/03/28 13:45:08;;;;;;;;;;;12.50;94.10;;;;;;13153601;22;20386;-88
2021/03/28 13:50:28;;;;;;;;;;;12.30;94.30;;;;;;13174781;22;19942;-87
2021/03/28 13:55:29;;;;;;;;;;;12.40;94.80;;;;;;13145770;22;19949;-87
2021/03/28 14:00:35;;;;;;;;;;;12.40;94.80;;;;;;13145367;22;19922;-88
2021/03/28 14:05:39;;;;;;;;;;;12.70;94.60;;;;;;13145545;22;19924;-88
2021/03/28 14:10:40;;;;;;;;;;;12.60;95.20;;;;;;13150061;22;19997;-87
2021/03/28 14:15:46;;;;;;;;;;;12.80;94.20;;;;;;13176841;22;19997;-88
2021/03/28 14:21:07;;;;;;;;;;;12.60;94.90;;;;;;13144552;22;19922;-87
2021/03/28 14:26:08;;;;;;;;;;;12.60;96.10;;;;;;13172474;22;19961;-87
2021/03/28 14:31:09;;;;;;;;;;;12.60;96.40;;;;;;13172879;22;19932;-87
2021/03/28 14:36:43;;;;;;;;;;;12.70;96.00;;;;;;13144587;22;19942;-87
2021/03/28 14:41:58;;;;;;;;;;;12.60;96.10;;;;;;13084721;22;19929;-87
2021/03/28 14:47:04;;;;;;;;;;;12.80;95.40;;;;;;13172911;22;20216;-88
2021/03/28 14:52:15;;;;;;;;;;;13.00;95.60;;;;;;13172994;22;19994;-88
2021/03/28 14:57:19;;;;;;;;;;;12.90;95.40;;;;;;13144311;22;19923;-87
2021/03/28 15:02:40;;;;;;;;;;;14.40;95.30;;;;;;13147785;22;19929;-88
2021/03/28 15:07:48;;;;;;;;;;;13.00;94.70;;;;;;13171536;22;19919;-88
2021/03/28 15:12:55;;;;;;;;;;;13.10;94.90;;;;;;13171733;22;20363;-88
2021/03/28 15:18:11;;;;;;;;;;;13.10;95.60;;;;;;13143400;22;19978;-88
2021/03/28 15:23:12;;;;;;;;;;;13.20;96.00;;;;;;13172450;22;19936;-88
2021/03/28 15:28:16;;;;;;;;;;;13.20;95.30;;;;;;13144917;22;19953;-87
2021/03/28 15:33:53;;;;;;;;;;;13.10;95.50;;;;;;13173896;22;19922;-88
2021/03/28 15:39:00;;;;;;;;;;;13.10;95.00;;;;;;12953723;22;19996;-87
2021/03/28 15:44:04;;;;;;;;;;;13.20;96.30;;;;;;13175781;22;20361;-88
2021/03/28 15:49:41;;;;;;;;;;;13.20;95.20;;;;;;13176999;22;19926;-87
2021/03/28 15:55:07;;;;;;;;;;;13.10;96.20;;;;;;12958096;22;19922;-87
2021/03/28 16:00:14;;;;;;;;;;;13.10;96.70;;;;;;13175421;22;20001;-87
2021/03/28 16:05:31;;;;;;;;;;;13.10;96.60;;;;;;13175390;22;20422;-88
2021/03/28 16:10:35;;;;;;;;;;;13.00;97.00;;;;;;13175377;22;20236;-88
2021/03/28 16:15:48;;;;;;;;;;;13.00;97.00;;;;;;13147983;22;19953;-87
2021/03/28 16:20:50;;;;;;;;;;;13.00;96.90;;;;;;13175780;22;19997;-88
2021/03/28 16:26:16;;;;;;;;;;;12.90;97.90;;;;;;13152467;22;19995;-88
2021/03/28 16:31:30;;;;;;;;;;;12.90;97.90;;;;;;13176032;22;19946;-88
2021/03/28 16:36:49;;;;;;;;;;;12.80;97.90;;;;;;13174079;22;20000;-88
2021/03/28 16:41:50;;;;;;;;;;;12.80;97.60;;;;;;13148144;22;19993;-88
2021/03/28 16:46:58;;;;;;;;;;;12.80;98.00;;;;;;13174242;22;20389;-88
2021/03/28 16:52:02;;;;;;;;;;;12.70;97.50;;;;;;13147394;22;19949;-88
2021/03/28 16:57:06;;;;;;;;;;;12.70;97.60;;;;;;13147136;22;19928;-88
2021/03/28 17:02:28;;;;;;;;;;;12.60;97.90;;;;;;13145060;22;20521;-88
2021/03/28 17:07:31;;;;;;;;;;;12.70;98.10;;;;;;13106054;22;19989;-88
2021/03/28 17:12:33;;;;;;;;;;;12.70;97.70;;;;;;13108571;22;20022;-88
2021/03/28 17:17:40;;;;;;;;;;;12.60;98.70;;;;;;13106349;22;19923;-88
2021/03/28 17:22:41;;;;;;;;;;;12.60;98.30;;;;;;13108271;22;19989;-88
2021/03/28 17:28:01;;;;;;;;;;;12.60;98.50;;;;;;13105070;22;19926;-88
2021/03/28 17:33:04;;;;;;;;;;;12.50;98.70;;;;;;13106351;22;20185;-89
2021/03/28 17:38:15;;;;;;;;;;;12.50;98.70;;;;;;13106599;22;20280;-88
2021/03/28 17:43:34;;;;;;;;;;;12.50;98.90;;;;;;13108254;22;19922;-88
2021/03/28 17:48:39;;;;;;;;;;;12.40;99.10;;;;;;13107101;22;19922;-88
2021/03/28 17:53:41;;;;;;;;;;;12.40;99.10;;;;;;13107882;22;19919;-88
2021/03/28 17:58:47;;;;;;;;;;;12.40;98.80;;;;;;13106321;22;20005;-88
2021/03/28 18:03:50;;;;;;;;;;;12.30;99.30;;;;;;13125225;22;19922;-88
2021/03/28 18:08:56;;;;;;;;;;;12.30;98.60;;;;;;13173359;22;19922;-88
2021/03/28 18:14:24;;;;;;;;;;;12.20;99.10;;;;;;13171297;22;19933;-87
2021/03/28 18:19:26;;;;;;;;;;;12.20;99.30;;;;;;13165054;22;20382;-87
2021/03/28 18:24:37;;;;;;;;;;;12.00;99.90;;;;;;13171159;22;20311;-87
2021/03/28 18:30:01;;;;;;;;;;;12.00;99.90;;;;;;13171907;22;19922;-87
2021/03/28 18:35:02;;;;;;;;;;;11.90;99.90;;;;;;13171234;22;19993;-88
2021/03/28 18:40:13;;;;;;;;;;;11.90;99.90;;;;;;13172144;22;20299;-88
2021/03/28 18:45:26;;;;;;;;;;;11.80;99.90;;;;;;13170625;22;19928;-88
2021/03/28 18:50:30;;;;;;;;;;;11.70;99.90;;;;;;13170690;22;19918;-88
2021/03/28 18:55:40;;;;;;;;;;;11.60;99.90;;;;;;13170102;22;19923;-88
2021/03/28 19:00:41;;;;;;;;;;;11.50;99.90;;;;;;13172752;22;19924;-88
2021/03/28 19:05:57;;;;;;;;;;;11.40;99.90;;;;;;13146856;22;19922;-87
2021/03/28 19:11:00;;;;;;;;;;;11.20;99.90;;;;;;13170966;22;19929;-88
2021/03/28 19:16:13;;;;;;;;;;;11.30;99.90;;;;;;13171921;22;19922;-87
2021/03/28 19:21:23;;;;;;;;;;;11.30;99.90;;;;;;13170744;22;19922;-88
2021/03/28 19:26:29;;;;;;;;;;;11.10;99.90;;;;;;13170066;22;20258;-87
2021/03/28 19:31:32;;;;;;;;;;;11.00;99.90;;;;;;13170004;22;20317;-87
2021/03/28 19:36:34;;;;;;;;;;;10.90;99.90;;;;;;13170359;22;19953;-87
2021/03/28 19:41:39;;;;;;;;;;;10.90;99.90;;;;;;13143762;22;20464;-88
2021/03/28 19:51:49;;;;;;;;;;;10.70;99.90;;;;;;13171912;22;19960;-87
2021/03/28 19:56:52;;;;;;;;;;;10.90;99.90;;;;;;13169728;22;20302;-87
2021/03/28 20:01:57;;;;;;;;;;;10.60;99.90;;;;;;13172161;22;19933;-87
2021/03/28 20:06:58;;;;;;;;;;;10.40;99.90;;;;;;13169207;22;20274;-86
2021/03/28 20:12:04;;;;;;;;;;;10.60;99.90;;;;;;13170603;22;19929;-87
2021/03/28 20:17:06;;;;;;;;;;;10.60;99.90;;;;;;13143645;22;20242;-87
2021/03/28 20:22:12;;;;;;;;;;;10.80;99.90;;;;;;13146354;22;20317;-87
2021/03/28 20:27:16;;;;;;;;;;;10.00;99.90;;;;;;13174207;22;19944;-87
2021/03/28 20:32:19;;;;;;;;;;;10.40;99.90;;;;;;13173264;22;19950;-87
2021/03/28 20:37:33;;;;;;;;;;;10.40;99.90;;;;;;13179321;22;19958;-87
2021/03/28 20:42:36;;;;;;;;;;;10.40;99.90;;;;;;13181345;22;19993;-88
2021/03/28 20:47:50;;;;;;;;;;;10.10;99.90;;;;;;13180927;22;19988;-87
2021/03/28 20:52:55;;;;;;;;;;;10.00;99.90;;;;;;13182050;22;19982;-88
2021/03/28 20:58:00;;;;;;;;;;;10.00;99.90;;;;;;13181830;22;19926;-88
2021/03/28 21:03:04;;;;;;;;;;;10.40;99.90;;;;;;13156044;22;19942;-88
2021/03/28 21:08:07;;;;;;;;;;;9.60;99.90;;;;;;13180207;22;20310;-87
2021/03/28 21:13:14;;;;;;;;;;;9.40;99.90;;;;;;13180675;22;20251;-88
2021/03/28 21:18:16;;;;;;;;;;;9.10;99.90;;;;;;13184286;22;19918;-88
2021/03/28 21:23:19;;;;;;;;;;;9.00;99.90;;;;;;13180511;22;20327;-87
2021/03/28 21:28:21;;;;;;;;;;;9.30;99.90;;;;;;13180447;22;20396;-88
2021/03/28 21:33:23;;;;;;;;;;;9.30;99.90;;;;;;13154931;22;19926;-87
2021/03/28 21:38:25;;;;;;;;;;;9.20;99.90;;;;;;13179997;22;20243;-87
2021/03/28 21:43:27;;;;;;;;;;;9.30;99.90;;;;;;13179907;22;20001;-87
2021/03/28 21:48:29;;;;;;;;;;;9.10;99.90;;;;;;13180982;22;19953;-87
2021/03/28 21:53:30;;;;;;;;;;;9.20;99.90;;;;;;13181504;22;20425;-87
2021/03/28 21:58:38;;;;;;;;;;;9.10;99.90;;;;;;13179529;22;19957;-87
2021/03/28 22:03:39;;;;;;;;;;;9.10;99.90;;;;;;13179749;22;20410;-87
2021/03/28 22:08:44;;;;;;;;;;;9.10;99.90;;;;;;13181038;22;20354;-87
2021/03/28 22:13:47;;;;;;;;;;;9.00;99.90;;;;;;13180308;22;19949;-88
2021/03/28 22:18:48;;;;;;;;;;;9.30;99.90;;;;;;13180250;22;19997;-88
2021/03/28 22:23:53;;;;;;;;;;;9.20;99.90;;;;;;13181595;22;19941;-88
2021/03/28 22:28:55;;;;;;;;;;;8.90;99.90;;;;;;13153278;22;19944;-88
2021/03/28 22:33:57;;;;;;;;;;;9.10;99.90;;;;;;13179946;22;19996;-88
2021/03/28 22:38:58;;;;;;;;;;;9.00;99.90;;;;;;13178843;22;20349;-88
2021/03/28 22:44:00;;;;;;;;;;;8.90;99.90;;;;;;13152244;22;19925;-88
2021/03/28 22:49:01;;;;;;;;;;;9.00;99.90;;;;;;13153560;22;19967;-88
2021/03/28 22:54:05;;;;;;;;;;;8.90;99.90;;;;;;13179668;22;19918;-88
2021/03/28 22:59:10;;;;;;;;;;;8.90;99.90;;;;;;13180078;22;20338;-87
2021/03/28 23:04:12;;;;;;;;;;;8.90;99.90;;;;;;13180856;22;19922;-87
2021/03/28 23:09:14;;;;;;;;;;;9.00;99.90;;;;;;13152228;22;19922;-88
2021/03/28 23:14:15;;;;;;;;;;;9.10;99.90;;;;;;13180653;22;19925;-87
2021/03/28 23:19:17;;;;;;;;;;;9.00;99.90;;;;;;13178362;22;20410;-88
2021/03/28 23:24:18;;;;;;;;;;;8.90;99.90;;;;;;13179196;22;19918;-88
2021/03/28 23:29:26;;;;;;;;;;;9.00;99.90;;;;;;13178320;22;19938;-87
2021/03/28 23:34:29;;;;;;;;;;;9.10;99.90;;;;;;13180374;22;19922;-87
2021/03/28 23:39:30;;;;;;;;;;;8.80;99.90;;;;;;13179844;22;19922;-87
2021/03/28 23:44:31;;;;;;;;;;;8.80;99.90;;;;;;13179577;22;19964;-87
2021/03/28 23:49:41;;;;;;;;;;;8.70;99.90;;;;;;13179455;22;19993;-87
2021/03/28 23:54:43;;;;;;;;;;;8.80;99.90;;;;;;13180335;22;19946;-87
2021/03/28 23:59:45;;;;;;;;;;;8.70;99.90;;;;;;13182703;22;20208;-87
